Time;durP1;ratioP1;P1;durP2;ratioP2;P2;SDS_P1;SDS_P2;PMS_P1;PMS_P2;Temp;Humidity;BMP_temperature;BMP_pressure;BME280_temperature;BME280_humidity;BME280_pressure;Samples;Min_cycle;Max_cycle;Signal;HPM_P1;HPM_P2
2022/12/02 00:02:04;;;;;;;51.80;44.00;;;;;;;1.50;68.98;101549.21;108321;1280;23854;-78
2022/12/02 00:05:12;;;;;;;;;;;;;;;;;;;;;
2022/12/02 00:07:58;;;;;;;;;;;;;;;1.37;69.30;101544.48;107813;1285;23107;-76
2022/12/02 00:10:41;;;;;;;55.20;43.30;;;;;;;1.30;69.63;101548.30;107977;1286;21957;-76
2022/12/02 00:13:57;;;;;;;52.80;43.10;;;;;;;1.29;69.68;101545.03;107470;1292;22042;-76
2022/12/02 00:16:26;;;;;;;48.30;41.50;;;;;;;1.27;69.56;101542.92;106894;1296;22331;-76
2022/12/02 00:19:25;;;;;;;53.80;41.60;;;;;;;1.24;69.70;101542.37;106241;1300;22853;-75
2022/12/02 00:22:24;;;;;;;49.50;39.30;;;;;;;1.25;69.64;101545.29;106161;1300;21982;-76
2022/12/02 00:24:54;;;;;;;57.20;42.90;;;;;;;1.21;69.63;101550.02;106595;1292;23789;-76
2022/12/02 00:27:27;;;;;;;52.30;40.80;;;;;;;1.16;69.74;101549.24;106633;1296;23047;-77
2022/12/02 00:30:16;;;;;;;45.80;40.80;;;;;;;1.10;69.77;101548.09;106698;1295;23075;-77
2022/12/02 00:32:58;;;;;;;52.80;39.60;;;;;;;1.02;69.79;101548.60;106568;1296;23354;-77
2022/12/02 00:35:45;;;;;;;44.90;38.90;;;;;;;0.94;69.87;101552.58;106827;1299;21963;-76
2022/12/02 00:38:35;;;;;;;46.30;40.40;;;;;;;0.91;70.08;101551.31;106840;1294;21995;-76
2022/12/02 00:41:25;;;;;;;48.30;40.10;;;;;;;0.88;70.25;101547.12;107133;1294;21955;-76
2022/12/02 00:47:04;;;;;;;49.40;40.20;;;;;;;0.81;70.55;101537.55;107104;1293;23671;-77
2022/12/02 00:50:11;;;;;;;42.90;37.20;;;;;;;0.80;70.66;101538.57;106997;1289;22036;-76
2022/12/02 00:52:47;;;;;;;51.40;40.30;;;;;;;0.82;70.74;101538.44;107512;1280;22450;-77
2022/12/02 00:55:27;;;;;;;49.20;41.70;;;;;;;0.81;70.71;101539.78;108149;1280;24693;-76
2022/12/02 00:58:16;;;;;;;48.10;41.70;;;;;;;0.78;70.93;101537.66;108570;1274;21923;-77
2022/12/02 01:00:56;;;;;;;44.70;40.00;;;;;;;0.77;70.95;101538.13;108570;1277;23019;-77
2022/12/02 01:03:29;;;;;;;48.00;42.60;;;;;;;0.74;71.07;101538.77;108772;1275;22343;-77
2022/12/02 01:05:59;;;;;;;51.60;44.40;;;;;;;0.72;71.14;101537.70;108663;1275;23156;-77
2022/12/02 01:08:38;;;;;;;50.50;42.90;;;;;;;0.72;71.25;101534.27;108596;1275;22105;-77
2022/12/02 01:11:10;;;;;;;49.40;44.20;;;;;;;0.69;71.27;101530.10;108663;1273;22187;-78
2022/12/02 01:13:42;;;;;;;50.60;45.10;;;;;;;0.69;71.42;101529.74;108768;1275;21921;-77
2022/12/02 01:16:11;;;;;;;53.20;44.60;;;;;;;0.69;71.47;101533.19;108737;1275;23017;-77
2022/12/02 01:18:52;;;;;;;48.20;42.50;;;;;;;0.71;71.52;101530.12;108703;1275;21959;-77
2022/12/02 01:21:42;;;;;;;51.50;44.60;;;;;;;0.64;71.44;101518.86;108488;1278;23752;-78
2022/12/02 01:24:29;;;;;;;47.30;42.20;;;;;;;0.61;71.51;101518.96;108548;1280;21941;-78
2022/12/02 01:27:22;;;;;;;;;;;;;;;;;;;;;
2022/12/02 01:30:09;;;;;;;54.90;46.80;;;;;;;0.51;71.75;101515.84;108506;1278;22992;-76
2022/12/02 01:32:43;;;;;;;51.50;45.80;;;;;;;0.53;71.89;101519.98;108551;1280;22007;-77
2022/12/02 01:35:19;;;;;;;51.40;45.80;;;;;;;0.50;71.83;101518.55;108441;1278;22317;-77
2022/12/02 01:37:53;;;;;;;50.80;45.20;;;;;;;0.51;72.09;101518.58;108307;1272;23067;-77
2022/12/02 01:40:51;;;;;;;52.10;44.70;;;;;;;0.50;72.19;101514.61;108714;1275;23081;-77
2022/12/02 01:43:54;;;;;;;48.90;42.90;;;;;;;0.45;72.10;101510.90;108645;1275;23596;-77
2022/12/02 01:46:41;;;;;;;53.60;45.50;;;;;;;0.41;72.23;101508.58;108663;1274;24335;-76
2022/12/02 01:49:42;;;;;;;50.70;43.80;;;;;;;0.38;72.38;101504.75;108638;1275;22439;-76
2022/12/02 01:52:36;;;;;;;50.70;45.20;;;;;;;0.37;72.52;101504.40;108232;1280;22503;-77
2022/12/02 01:55:13;;;;;;;50.90;45.50;;;;;;;0.39;72.64;101502.38;108545;1278;23694;-77
2022/12/02 01:58:25;;;;;;;52.20;43.70;;;;;;;0.37;72.63;101498.93;108389;1280;23037;-77
2022/12/02 02:01:25;;;;;;;53.70;47.90;;;;;;;0.34;72.78;101498.00;108321;1280;23088;-78
2022/12/02 02:04:07;;;;;;;53.80;48.10;;;;;;;0.37;72.95;101496.01;107705;1286;23025;-78
2022/12/02 02:07:03;;;;;;;49.60;43.90;;;;;;;0.40;72.96;101492.64;107769;1281;21938;-76
2022/12/02 02:09:48;;;;;;;49.40;44.00;;;;;;;0.40;72.98;101492.64;107281;1286;21979;-76
2022/12/02 02:12:45;;;;;;;53.80;44.80;;;;;;;0.42;73.08;101495.25;107793;1286;23081;-77
2022/12/02 02:15:42;;;;;;;46.90;41.90;;;;;;;0.41;73.11;101494.55;107713;1286;23863;-79
2022/12/02 02:18:49;;;;;;;50.60;44.10;;;;;;;0.42;73.20;101490.63;107652;1284;22711;-78
2022/12/02 02:21:30;;;;;;;46.60;41.10;;;;;;;0.46;73.31;101491.39;107722;1280;21939;-77
2022/12/02 02:24:15;;;;;;;45.70;40.80;;;;;;;0.49;73.32;101489.75;108084;1280;22303;-78
2022/12/02 02:27:06;;;;;;;48.80;42.60;;;;;;;0.46;73.29;101487.80;108230;1280;21930;-77
2022/12/02 02:29:50;;;;;;;46.70;41.70;;;;;;;0.45;73.25;101491.88;108294;1280;21927;-78
2022/12/02 02:32:26;;;;;;;47.70;42.60;;;;;;;0.45;73.36;101490.52;108295;1279;21998;-77
2022/12/02 02:35:15;;;;;;;;;;;;;;;0.47;73.37;101493.80;108515;1275;21895;-77
2022/12/02 02:38:01;;;;;;;45.20;40.20;;;;;;;0.39;73.51;101492.63;108246;1280;21960;-77
2022/12/02 02:40:47;;;;;;;39.60;35.30;;;;;;;0.37;73.49;101493.09;108067;1283;22089;-76
2022/12/02 02:43:35;;;;;;;43.20;36.30;;;;;;;0.35;73.42;101492.20;108194;1283;21934;-76
2022/12/02 02:46:15;;;;;;;42.20;35.30;;;;;;;0.36;73.48;101498.70;108054;1282;21930;-77
2022/12/02 02:48:52;;;;;;;43.20;38.10;;;;;;;0.36;73.38;101498.90;108040;1284;23788;-77
2022/12/02 02:51:27;;;;;;;42.50;37.20;;;;;;;0.36;73.41;101496.15;107849;1282;23578;-77
2022/12/02 02:54:36;;;;;;;38.70;34.30;;;;;;;0.38;73.53;101503.04;108077;1283;22880;-76
2022/12/02 02:57:14;;;;;;;36.60;32.70;;;;;;;0.39;73.43;101500.15;108101;1281;21908;-76
2022/12/02 02:59:50;;;;;;;38.10;34.00;;;;;;;0.36;73.29;101498.89;108276;1280;22013;-77
2022/12/02 03:02:32;;;;;;;42.90;34.50;;;;;;;0.36;73.38;101499.90;107999;1283;23067;-77
2022/12/02 03:05:05;;;;;;;52.30;34.40;;;;;;;0.37;73.40;101499.94;107802;1283;22435;-76
2022/12/02 03:07:34;;;;;;;50.30;38.00;;;;;;;0.39;73.36;101499.64;107490;1292;22421;-76
2022/12/02 03:10:19;;;;;;;64.20;38.20;;;;;;;0.38;73.31;101501.16;107436;1292;21984;-77
2022/12/02 03:12:52;;;;;;;53.80;36.00;;;;;;;0.37;73.49;101496.52;107225;1290;21914;-78
2022/12/02 03:15:31;;;;;;;52.50;34.60;;;;;;;0.41;73.40;101495.90;107220;1292;21965;-77
2022/12/02 03:18:22;;;;;;;50.50;36.70;;;;;;;0.40;73.24;101493.33;107486;1286;22720;-76
2022/12/02 03:20:56;;;;;;;60.40;37.80;;;;;;;0.34;73.16;101493.88;107488;1289;21943;-76
2022/12/02 03:23:31;;;;;;;46.70;34.00;;;;;;;0.33;73.13;101492.48;107522;1289;22718;-78
2022/12/02 03:26:08;;;;;;;36.80;31.80;;;;;;;0.34;73.30;101495.08;107964;1280;23067;-76
2022/12/02 03:28:47;;;;;;;33.90;29.40;;;;;;;0.36;73.30;101494.09;108157;1280;23061;-77
2022/12/02 03:31:18;;;;;;;46.70;33.20;;;;;;;0.38;73.21;101493.29;108126;1280;22212;-77
2022/12/02 03:34:06;;;;;;;38.30;29.40;;;;;;;0.40;73.12;101492.13;108204;1278;21944;-77
2022/12/02 03:36:43;;;;;;;41.80;30.20;;;;;;;0.38;72.88;101488.50;108298;1281;21979;-77
2022/12/02 03:39:12;;;;;;;30.50;27.30;;;;;;;0.39;73.00;101491.59;108412;1275;23775;-78
2022/12/02 03:41:49;;;;;;;30.70;25.40;;;;;;;0.37;72.73;101487.09;108387;1278;21929;-77
2022/12/02 03:44:37;;;;;;;30.90;26.90;;;;;;;0.34;72.71;101483.77;108445;1278;22698;-77
2022/12/02 03:47:08;;;;;;;30.40;27.30;;;;;;;0.35;72.61;101482.92;108326;1278;21932;-77
2022/12/02 03:49:43;;;;;;;32.30;28.20;;;;;;;0.35;72.58;101483.80;108455;1278;21964;-77
2022/12/02 03:52:14;;;;;;;27.70;24.60;;;;;;;0.34;72.38;101484.30;108346;1278;22046;-77
2022/12/02 03:54:52;;;;;;;27.10;24.30;;;;;;;0.31;72.08;101482.34;108265;1278;22004;-77
2022/12/02 03:58:01;;;;;;;28.10;24.60;;;;;;;0.24;72.03;101482.86;108423;1272;23078;-76
2022/12/02 04:00:41;;;;;;;30.80;23.50;;;;;;;0.22;72.00;101481.98;108526;1275;22156;-79
2022/12/02 04:03:12;;;;;;;31.70;27.90;;;;;;;0.23;72.13;101483.20;108274;1280;22008;-78
2022/12/02 04:06:03;;;;;;;28.40;25.50;;;;;;;0.28;72.22;101479.52;108118;1282;23055;-78
2022/12/02 04:08:45;;;;;;;28.10;25.20;;;;;;;0.29;71.97;101482.30;107671;1289;22420;-79
2022/12/02 04:11:20;;;;;;;29.20;25.60;;;;;;;0.27;71.84;101485.34;107376;1291;21981;-78
2022/12/02 04:13:52;;;;;;;28.70;24.60;;;;;;;0.27;71.48;101486.02;107162;1291;21961;-77
2022/12/02 04:16:39;;;;;;;27.40;24.20;;;;;;;0.26;71.54;101489.07;107161;1291;21981;-77
2022/12/02 04:19:16;;;;;;;25.80;23.10;;;;;;;0.23;71.44;101483.02;107161;1291;23878;-78
2022/12/02 04:21:55;;;;;;;28.00;22.70;;;;;;;0.21;71.31;101485.36;107637;1286;22304;-78
2022/12/02 04:24:33;;;;;;;27.60;24.50;;;;;;;0.22;71.24;101486.59;107400;1292;24143;-77
2022/12/02 04:27:05;;;;;;;29.00;25.90;;;;;;;0.23;71.13;101483.35;107765;1286;21982;-77
2022/12/02 04:29:38;;;;;;;30.20;26.80;;;;;;;0.25;71.13;101482.19;108281;1281;21934;-78
2022/12/02 04:32:10;;;;;;;28.00;25.10;;;;;;;0.28;71.00;101480.72;108280;1280;22042;-76
2022/12/02 04:34:38;;;;;;;29.30;25.00;;;;;;;0.26;70.82;101480.33;108245;1280;22210;-77
2022/12/02 04:37:07;;;;;;;29.70;26.60;;;;;;;0.27;70.90;101475.92;108225;1280;21927;-77
2022/12/02 04:39:35;;;;;;;29.10;26.00;;;;;;;0.30;70.78;101475.98;107834;1286;21965;-76
2022/12/02 04:42:03;;;;;;;29.50;26.10;;;;;;;0.29;70.70;101479.22;107745;1286;21909;-77
2022/12/02 04:44:31;;;;;;;30.90;26.20;;;;;;;0.28;70.56;101473.20;107839;1286;22715;-77
2022/12/02 04:47:07;;;;;;;27.50;24.70;;;;;;;0.28;70.50;101471.48;108017;1281;23106;-77
2022/12/02 04:49:42;;;;;;;28.40;25.40;;;;;;;0.26;70.49;101467.85;108063;1283;23774;-76
2022/12/02 04:52:19;;;;;;;33.30;28.10;;;;;;;0.27;70.56;101471.98;107900;1286;21947;-77
2022/12/02 04:54:52;;;;;;;34.70;29.40;;;;;;;0.29;70.48;101468.59;107915;1286;23032;-77
2022/12/02 04:57:28;;;;;;;36.30;31.00;;;;;;;0.29;70.38;101468.41;107968;1278;21943;-78
2022/12/02 05:00:07;;;;;;;33.60;29.60;;;;;;;0.28;70.37;101466.52;108396;1274;21924;-77
2022/12/02 05:02:46;;;;;;;33.40;29.30;;;;;;;0.28;70.24;101472.00;108578;1275;23061;-77
2022/12/02 05:05:23;;;;;;;32.80;29.30;;;;;;;0.28;70.33;101473.54;108224;1280;22270;-78
2022/12/02 05:08:01;;;;;;;33.30;29.50;;;;;;;0.29;70.33;101471.34;108301;1281;21944;-78
2022/12/02 05:10:30;;;;;;;33.00;29.30;;;;;;;0.30;70.25;101467.79;108158;1278;22707;-78
2022/12/02 05:13:02;;;;;;;30.00;26.90;;;;;;;0.31;70.09;101470.52;108129;1280;22186;-78
2022/12/02 05:15:35;;;;;;;31.70;27.30;;;;;;;0.28;69.97;101470.79;107773;1286;24291;-77
2022/12/02 05:18:10;;;;;;;30.30;27.20;;;;;;;0.24;70.05;101467.61;107644;1286;21963;-78
2022/12/02 05:20:42;;;;;;;30.30;27.20;;;;;;;0.22;70.09;101464.85;107808;1286;21941;-77
2022/12/02 05:23:15;;;;;;;32.60;28.60;;;;;;;0.20;70.02;101459.83;107993;1280;21935;-78
2022/12/02 05:25:48;;;;;;;32.50;28.70;;;;;;;0.20;70.00;101461.89;108328;1280;21951;-77
2022/12/02 05:28:21;;;;;;;33.30;29.00;;;;;;;0.19;69.95;101465.80;108232;1284;22646;-77
2022/12/02 05:30:51;;;;;;;33.80;30.10;;;;;;;0.18;69.83;101464.75;108040;1286;24291;-78
2022/12/02 05:33:25;;;;;;;31.20;27.80;;;;;;;0.17;69.71;101463.53;107827;1283;22738;-77
2022/12/02 05:35:56;;;;;;;40.60;35.60;;;;;;;0.12;69.66;101465.32;108112;1283;21949;-78
2022/12/02 05:38:52;;;;;;;83.20;67.70;;;;;;;0.08;69.80;101464.18;108234;1283;23691;-77
2022/12/02 05:41:37;;;;;;;35.20;31.30;;;;;;;0.10;69.95;101464.40;108160;1283;22389;-77
2022/12/02 05:44:24;;;;;;;36.60;32.30;;;;;;;0.14;69.99;101463.64;107788;1292;22300;-78
2022/12/02 05:47:17;;;;;;;30.70;27.50;;;;;;;0.17;69.97;101459.25;107848;1289;22283;-78
2022/12/02 05:49:48;;;;;;;33.80;28.10;;;;;;;0.22;69.99;101463.65;108215;1286;22906;-78
2022/12/02 05:52:26;;;;;;;34.90;31.20;;;;;;;0.23;69.79;101466.56;107963;1286;21942;-77
2022/12/02 05:55:13;;;;;;;30.30;26.20;;;;;;;0.19;69.70;101471.13;107972;1285;23691;-76
2022/12/02 05:57:45;;;;;;;31.00;27.50;;;;;;;0.16;69.73;101471.73;107960;1283;22211;-76
2022/12/02 06:00:21;;;;;;;35.80;30.40;;;;;;;0.14;69.67;101472.54;108219;1283;21967;-77
2022/12/02 06:03:08;;;;;;;35.70;28.20;;;;;;;0.12;69.69;101478.50;107646;1275;1181616;-77
2022/12/02 06:05:52;;;;;;;31.30;27.40;;;;;;;0.12;69.76;101479.16;108615;1275;23566;-79
2022/12/02 06:08:33;;;;;;;27.60;24.70;;;;;;;0.13;69.77;101480.39;108775;1277;21985;-76
2022/12/02 06:11:37;;;;;;;31.10;27.60;;;;;;;0.14;69.77;101478.36;108819;1275;21961;-76
2022/12/02 06:14:22;;;;;;;31.60;28.40;;;;;;;0.14;69.69;101481.61;108653;1276;21913;-76
2022/12/02 06:17:02;;;;;;;33.00;27.30;;;;;;;0.11;69.65;101481.89;108606;1270;21926;-77
2022/12/02 06:19:47;;;;;;;30.40;27.20;;;;;;;0.10;69.66;101484.60;108776;1275;23659;-76
2022/12/02 06:22:36;;;;;;;25.90;23.20;;;;;;;0.12;69.81;101489.45;108785;1275;22971;-76
2022/12/02 06:25:23;;;;;;;25.40;22.70;;;;;;;0.09;69.66;101489.54;108705;1271;22031;-76
2022/12/02 06:28:28;;;;;;;25.50;21.60;;;;;;;0.08;69.64;101495.15;108595;1275;22282;-77
2022/12/02 06:31:12;;;;;;;23.70;21.10;;;;;;;0.03;69.48;101490.41;108990;1273;23045;-76
2022/12/02 06:33:41;;;;;;;25.10;21.90;;;;;;;-0.02;69.59;101497.33;108696;1275;22083;-76
2022/12/02 06:36:28;;;;;;;27.40;23.80;;;;;;;-0.05;69.57;101498.30;108824;1269;23745;-77
2022/12/02 06:39:02;;;;;;;24.60;21.30;;;;;;;-0.06;69.57;101499.62;108681;1275;22718;-75
2022/12/02 06:41:36;;;;;;;24.30;21.30;;;;;;;-0.09;69.52;101497.34;108629;1276;24569;-75
2022/12/02 06:45:26;;;;;;;24.40;21.70;;;;;;;-0.10;69.52;101503.65;108887;1276;21924;-77
2022/12/02 06:47:31;;;;;;;23.90;21.20;;;;;;;-0.13;69.63;101503.39;109006;1275;22692;-76
2022/12/02 06:50:04;;;;;;;24.80;20.30;;;;;;;-0.13;69.68;101505.96;109120;1275;22063;-75
2022/12/02 06:52:41;;;;;;;28.10;23.80;;;;;;;-0.13;69.62;101504.93;109161;1271;21950;-75
2022/12/02 06:55:32;;;;;;;40.90;29.70;;;;;;;-0.13;69.51;101506.30;109134;1275;23583;-76
2022/12/02 06:58:36;;;;;;;27.20;23.60;;;;;;;-0.15;69.60;101505.92;108522;1280;23724;-77
2022/12/02 07:01:06;;;;;;;28.80;25.60;;;;;;;-0.15;69.69;101507.62;108329;1269;21960;-77
2022/12/02 07:03:43;;;;;;;25.60;23.00;;;;;;;-0.12;69.68;101509.06;108559;1280;24107;-77
2022/12/02 07:06:22;;;;;;;24.10;21.30;;;;;;;-0.11;69.61;101511.14;107781;1286;22180;-77
2022/12/02 07:09:11;;;;;;;21.30;19.00;;;;;;;-0.12;69.42;101512.66;107851;1286;22257;-77
2022/12/02 07:11:51;;;;;;;24.50;19.70;;;;;;;-0.17;69.35;101514.94;108118;1286;24300;-78
2022/12/02 07:14:53;;;;;;;24.70;21.10;;;;;;;-0.21;69.30;101516.55;107407;1284;23074;-79
2022/12/02 07:17:41;;;;;;;19.90;17.80;;;;;;;-0.25;69.34;101518.70;107599;1292;22373;-77
2022/12/02 07:20:18;;;;;;;22.00;18.40;;;;;;;-0.27;69.32;101518.96;107491;1292;21965;-81
2022/12/02 07:23:26;;;;;;;28.80;22.30;;;;;;;-0.26;69.41;101519.67;107654;1291;22498;-76
2022/12/02 07:26:42;;;;;;;22.50;19.30;;;;;;;-0.28;69.41;101518.59;108245;1283;23617;-80
2022/12/02 07:29:34;;;;;;;21.70;19.40;;;;;;;-0.33;69.33;101515.20;108383;1279;21936;-79
2022/12/02 07:32:15;;;;;;;23.70;21.10;;;;;;;-0.35;69.26;101516.02;108974;1278;23051;-87
2022/12/02 07:34:52;;;;;;;40.60;28.20;;;;;;;-0.35;69.10;101520.80;109085;1276;21935;-79
2022/12/02 07:37:31;;;;;;;43.60;28.60;;;;;;;-0.36;69.09;101519.75;109047;1275;22113;-80
2022/12/02 07:40:06;;;;;;;45.80;29.80;;;;;;;-0.33;69.17;101520.34;109203;1277;21927;-81
2022/12/02 07:42:43;;;;;;;46.60;40.90;;;;;;;-0.31;69.04;101523.83;109256;1275;22631;-80
2022/12/02 07:45:20;;;;;;;30.20;27.20;;;;;;;-0.33;68.92;101522.39;108872;1280;21939;-80
2022/12/02 07:48:17;;;;;;;24.50;21.20;;;;;;;-0.36;68.97;101526.77;109030;1280;22628;-80
2022/12/02 07:51:10;;;;;;;29.90;25.20;;;;;;;-0.36;68.96;101527.45;108822;1281;21944;-80
2022/12/02 07:53:51;;;;;;;33.10;23.90;;;;;;;-0.37;68.96;101520.26;108901;1283;22083;-80
2022/12/02 07:57:02;;;;;;;31.90;25.20;;;;;;;-0.37;69.00;101523.16;108821;1280;21959;-80
2022/12/02 07:59:47;;;;;;;25.70;22.10;;;;;;;-0.35;69.04;101521.31;108723;1280;24043;-79
2022/12/02 08:03:02;;;;;;;;;;;;;;;;;;;;;
2022/12/02 08:06:04;;;;;;;27.50;23.70;;;;;;;-0.35;69.04;101521.65;108842;1275;21926;-80
2022/12/02 08:08:40;;;;;;;32.60;27.40;;;;;;;-0.33;69.10;101520.70;108592;1282;22227;-81
2022/12/02 08:11:14;;;;;;;30.00;26.60;;;;;;;-0.27;69.17;101515.38;108524;1281;21948;-79
2022/12/02 08:14:06;;;;;;;28.50;22.00;;;;;;;-0.22;69.06;101511.04;108300;1283;21916;-79
2022/12/02 08:16:57;;;;;;;40.00;27.80;;;;;;;-0.25;69.00;101515.41;108337;1280;21965;-79
2022/12/02 08:19:40;;;;;;;34.00;25.20;;;;;;;-0.29;68.88;101517.38;108522;1281;22803;-78
2022/12/02 08:22:22;;;;;;;30.60;25.60;;;;;;;-0.32;68.87;101514.23;108419;1283;21913;-78
2022/12/02 08:24:59;;;;;;;35.40;28.90;;;;;;;-0.32;68.86;101511.48;108375;1280;21937;-77
2022/12/02 08:27:27;;;;;;;39.20;29.50;;;;;;;-0.30;69.04;101508.27;108289;1281;23109;-79
2022/12/02 08:30:02;;;;;;;41.10;32.30;;;;;;;-0.26;69.05;101512.30;108051;1286;23716;-78
2022/12/02 08:32:40;;;;;;;45.10;31.50;;;;;;;-0.26;68.93;101513.16;107543;1292;22355;-78
2022/12/02 08:35:18;;;;;;;40.40;29.20;;;;;;;-0.29;68.80;101512.40;107496;1291;21948;-78
2022/12/02 08:37:52;;;;;;;43.90;30.90;;;;;;;-0.30;68.95;101515.12;107442;1287;23029;-78
2022/12/02 08:40:24;;;;;;;40.70;29.60;;;;;;;-0.32;68.94;101517.30;107071;1294;23683;-77
2022/12/02 08:42:52;;;;;;;49.30;29.90;;;;;;;-0.33;69.02;101519.98;107284;1292;22014;-80
2022/12/02 08:45:19;;;;;;;50.10;36.70;;;;;;;-0.26;69.19;101522.92;108014;1288;23136;-76
2022/12/02 08:47:47;;;;;;;39.40;30.10;;;;;;;-0.25;69.13;101527.23;107831;1283;22457;-77
2022/12/02 08:50:15;;;;;;;36.90;29.30;;;;;;;-0.28;69.10;101528.69;108154;1280;22085;-78
2022/12/02 08:52:47;;;;;;;;;;;;;;;-0.29;69.11;101528.98;108396;1280;21957;-76
2022/12/02 08:55:15;;;;;;;34.70;26.30;;;;;;;-0.39;69.15;101533.17;108466;1281;21906;-77
2022/12/02 08:57:45;;;;;;;38.90;29.60;;;;;;;-0.42;69.23;101533.13;108284;1279;21896;-76
2022/12/02 09:00:17;;;;;;;33.50;26.00;;;;;;;-0.38;69.33;101529.46;108537;1267;23477;-77
2022/12/02 09:02:45;;;;;;;28.70;25.00;;;;;;;-0.35;69.41;101534.50;108726;1278;21947;-77
2022/12/02 09:05:16;;;;;;;33.30;28.40;;;;;;;-0.33;69.47;101532.48;108566;1275;23061;-78
2022/12/02 09:07:46;;;;;;;36.90;27.00;;;;;;;-0.34;69.31;101535.89;108532;1275;22016;-77
2022/12/02 09:10:17;;;;;;;36.30;29.70;;;;;;;-0.34;69.39;101536.23;108730;1277;21981;-77
2022/12/02 09:12:52;;;;;;;31.20;27.60;;;;;;;-0.34;69.39;101536.91;108704;1272;23035;-78
2022/12/02 09:15:23;;;;;;;31.90;26.10;;;;;;;-0.34;69.48;101541.02;108682;1278;22134;-78
2022/12/02 09:17:55;;;;;;;32.90;26.60;;;;;;;-0.36;69.33;101540.77;108657;1278;22700;-77
2022/12/02 09:20:27;;;;;;;28.50;23.90;;;;;;;-0.39;69.47;101540.71;108655;1278;22127;-77
2022/12/02 09:22:56;;;;;;;;;;;;;;;-0.41;69.41;101537.08;108576;1277;23582;-78
2022/12/02 09:25:30;;;;;;;28.50;23.10;;;;;;;-0.52;69.50;101535.08;108232;1283;21939;-77
2022/12/02 09:28:00;;;;;;;29.10;24.40;;;;;;;-0.54;69.63;101535.70;107753;1286;21959;-77
2022/12/02 09:30:28;;;;;;;32.30;28.70;;;;;;;-0.54;69.67;101536.05;107669;1290;24315;-77
2022/12/02 09:32:56;;;;;;;30.90;27.60;;;;;;;-0.52;69.64;101535.42;107743;1286;21954;-77
2022/12/02 09:35:24;;;;;;;33.90;29.80;;;;;;;-0.50;69.72;101534.95;107690;1286;23466;-77
2022/12/02 09:37:52;;;;;;;32.90;29.40;;;;;;;-0.47;69.73;101542.75;107824;1286;21939;-77
2022/12/02 09:40:21;;;;;;;29.10;25.20;;;;;;;-0.46;69.58;101544.30;107757;1286;23577;-77
2022/12/02 09:42:51;;;;;;;36.80;30.40;;;;;;;-0.48;69.61;101543.23;107887;1286;22710;-76
2022/12/02 09:45:18;;;;;;;33.90;26.90;;;;;;;-0.49;69.77;101544.23;108290;1284;23066;-77
2022/12/02 09:47:48;;;;;;;33.90;25.40;;;;;;;-0.48;69.74;101543.04;108298;1284;21907;-77
2022/12/02 09:50:16;;;;;;;35.30;28.20;;;;;;;-0.49;69.69;101541.98;108202;1284;23704;-78
2022/12/02 09:52:48;;;;;;;32.40;27.40;;;;;;;-0.51;69.73;101539.55;108368;1278;21907;-77
2022/12/02 09:55:22;;;;;;;29.40;25.70;;;;;;;-0.50;69.67;101537.69;108647;1278;22138;-76
2022/12/02 09:57:50;;;;;;;32.60;27.90;;;;;;;-0.51;69.67;101533.05;108559;1278;22908;-75
2022/12/02 10:00:27;;;;;;;33.90;28.40;;;;;;;-0.55;69.71;101530.55;108577;1279;22327;-76
2022/12/02 10:02:56;;;;;;;33.70;28.20;;;;;;;-0.54;69.95;101526.99;108583;1278;21942;-76
2022/12/02 10:05:29;;;;;;;34.00;28.10;;;;;;;-0.53;70.03;101516.77;108551;1278;21927;-76
2022/12/02 10:07:59;;;;;;;35.00;28.10;;;;;;;-0.52;69.87;101520.17;108602;1276;21919;-78
2022/12/02 10:10:41;;;;;;;31.20;27.90;;;;;;;-0.54;69.96;101515.36;108531;1278;21929;-76
2022/12/02 10:13:16;;;;;;;29.90;24.20;;;;;;;-0.57;69.92;101512.38;108625;1278;22391;-76
2022/12/02 10:15:48;;;;;;;29.20;26.00;;;;;;;-0.59;70.01;101510.27;108622;1277;23674;-77
2022/12/02 10:18:29;;;;;;;29.50;25.40;;;;;;;-0.60;70.03;101507.86;108478;1278;23583;-76
2022/12/02 10:20:57;;;;;;;27.40;23.40;;;;;;;-0.58;70.17;101507.90;108222;1282;24381;-77
2022/12/02 10:23:32;;;;;;;29.10;25.30;;;;;;;-0.59;70.22;101505.81;108281;1282;23067;-77
2022/12/02 10:26:13;;;;;;;36.20;29.30;;;;;;;-0.62;70.17;101504.56;108218;1283;21931;-77
2022/12/02 10:28:42;;;;;;;39.40;31.10;;;;;;;-0.62;70.23;101499.77;108168;1284;21995;-77
2022/12/02 10:31:14;;;;;;;40.10;30.50;;;;;;;-0.64;70.13;101496.13;108150;1284;22711;-76
2022/12/02 10:34:01;;;;;;;37.70;31.20;;;;;;;-0.65;70.20;101490.11;107923;1285;23597;-77
2022/12/02 10:36:33;;;;;;;41.30;32.20;;;;;;;-0.62;70.40;101492.56;108164;1274;23505;-77
2022/12/02 10:39:20;;;;;;;32.20;27.00;;;;;;;-0.61;70.31;101490.90;108421;1277;23088;-77
2022/12/02 10:42:15;;;;;;;34.00;28.90;;;;;;;-0.62;70.23;101492.91;108673;1276;22260;-77
2022/12/02 10:45:06;;;;;;;38.60;30.20;;;;;;;-0.65;70.39;101492.48;108615;1278;21981;-77
2022/12/02 10:47:34;;;;;;;41.50;30.90;;;;;;;-0.64;70.40;101486.20;108559;1277;21914;-77
2022/12/02 10:50:13;;;;;;;44.10;29.20;;;;;;;-0.58;70.51;101484.30;108504;1277;21936;-77
2022/12/02 10:52:49;;;;;;;41.30;28.30;;;;;;;-0.55;70.46;101481.47;108578;1277;22385;-77
2022/12/02 10:55:22;;;;;;;41.00;31.40;;;;;;;-0.51;70.40;101482.45;108545;1272;23057;-76
2022/12/02 10:57:50;;;;;;;36.20;27.90;;;;;;;-0.50;70.36;101483.66;108516;1276;23049;-77
2022/12/02 11:00:32;;;;;;;38.10;29.80;;;;;;;-0.50;70.34;101484.52;108654;1278;21930;-77
2022/12/02 11:03:08;;;;;;;34.70;29.40;;;;;;;-0.52;70.23;101487.70;108574;1277;22706;-77
2022/12/02 11:05:40;;;;;;;51.70;40.50;;;;;;;-0.58;70.09;101484.14;108403;1281;22374;-78
2022/12/02 11:08:24;;;;;;;37.40;29.90;;;;;;;-0.62;70.17;101484.05;108386;1283;22005;-78
2022/12/02 11:11:41;;;;;;;54.10;34.20;;;;;;;-0.63;70.26;101485.38;108481;1281;22040;-77
2022/12/02 11:14:15;;;;;;;54.10;37.50;;;;;;;-0.65;70.38;101485.67;108337;1278;22289;-77
2022/12/02 11:17:12;;;;;;;51.10;36.00;;;;;;;-0.61;70.43;101489.71;108308;1283;22440;-76
2022/12/02 11:19:46;;;;;;;52.00;39.40;;;;;;;-0.57;70.36;101491.84;108482;1279;21948;-77
2022/12/02 11:23:11;;;;;;;62.70;41.80;;;;;;;-0.58;70.31;101491.81;107965;1283;21965;-78
2022/12/02 11:25:46;;;;;;;53.70;40.60;;;;;;;-0.63;70.32;101494.60;107930;1282;23091;-75
2022/12/02 11:28:37;;;;;;;49.80;38.10;;;;;;;-0.63;70.33;101493.41;108124;1280;23060;-76
2022/12/02 11:31:13;;;;;;;47.30;37.40;;;;;;;-0.64;70.34;101491.51;107766;1287;21957;-78
2022/12/02 11:33:47;;;;;;;51.30;38.40;;;;;;;-0.62;70.46;101489.67;107673;1282;23721;-78
2022/12/02 11:36:23;;;;;;;55.10;40.00;;;;;;;-0.62;70.28;101495.82;107759;1290;21942;-78
2022/12/02 11:38:54;;;;;;;52.00;39.20;;;;;;;-0.64;70.20;101494.91;107616;1286;22199;-78
2022/12/02 11:41:29;;;;;;;56.20;40.40;;;;;;;-0.68;70.17;101492.94;107367;1287;21973;-79
2022/12/02 11:44:28;;;;;;;50.10;40.10;;;;;;;-0.72;70.31;101491.81;107468;1285;21949;-79
2022/12/02 11:47:03;;;;;;;52.80;40.20;;;;;;;-0.75;70.42;101490.53;107408;1286;21942;-78
2022/12/02 11:49:40;;;;;;;49.90;38.90;;;;;;;-0.75;70.49;101488.83;107276;1287;21954;-78
2022/12/02 11:52:16;;;;;;;51.80;37.40;;;;;;;-0.77;70.51;101488.07;107359;1291;21950;-78
2022/12/02 11:55:10;;;;;;;48.70;37.80;;;;;;;-0.80;70.51;101484.08;107570;1283;22002;-77
2022/12/02 11:57:52;;;;;;;49.10;38.50;;;;;;;-0.84;70.48;101488.23;107353;1292;21947;-78
2022/12/02 12:00:34;;;;;;;46.80;36.30;;;;;;;-0.89;70.57;101484.50;107878;1288;24906;-78
2022/12/02 12:03:16;;;;;;;50.50;38.30;;;;;;;-0.92;70.74;101480.00;108065;1285;22011;-77
2022/12/02 12:06:13;;;;;;;50.30;40.50;;;;;;;-0.90;70.88;101481.05;108293;1282;22191;-78
2022/12/02 12:08:55;;;;;;;50.80;40.20;;;;;;;-0.91;70.92;101483.08;107436;1291;23154;-79
2022/12/02 12:11:30;;;;;;;50.10;38.50;;;;;;;-0.97;70.82;101480.04;108023;1288;21996;-78
2022/12/02 12:14:10;;;;;;;56.40;39.20;;;;;;;-0.98;70.93;101476.42;108120;1289;23617;-78